Tropical Cyclones
[Index]
Main Index Home Page Stock Weather Photos Extreme Storms Discussion Storm News and Storm Chasing Reports Tropical Cyclones / Hurricanes / Typhoons Weather Data and Links Wild Fires / Bushfires Weather Observation Techniques Weather Picture Catalogue Tornado Pictures and Reports Stock Video Footage and DVDs for sale
Season 1995-1996 Tropical Cyclone EMMA Track Map
Season 1995-1996 Summaries: [BoM-AU] [JTWC-AU] [JTWC-SIO] [JTWC-SPAC] [JTWC-SH]
<<- Previous TC | JTWC 1995-1996 Season | Next TC ->>

click for intensity scale information  Lat/long Grid: Show Hide

 Date Labels: Show Hide

Joint Typhoon Warning Centre Cyclone Data

Name: EMMA

03 Dec 1995 00:00 UTC to 15 Dec 1995 06:00 UTC

    date/time    lat    long     hPa   cat  kts
1995-12-03 00   13.7   101.6                  15          
1995-12-03 06   13.7   100.9                  15          
1995-12-03 12   13.6   100.3                  15          
1995-12-03 18   13.3    99.5                  15          
1995-12-04 00   12.7    98.6                  20          
1995-12-04 06   12.1    97.6                  25          
1995-12-04 12   11.6    96.6                  30          
1995-12-04 18   11.0    95.7                  30          
1995-12-05 00   10.5    95.3                  30          
1995-12-05 06   10.1    95.1                  30          
1995-12-05 12    9.7    94.8                  30          
1995-12-05 18    9.6    94.5                  30          
1995-12-06 00    9.6    94.1                  30          
1995-12-06 06    9.9    93.7                  25          
1995-12-06 12   10.2    93.3                  25          
1995-12-06 18   10.3    92.9                  25          
1995-12-07 00   10.4    92.7                  25          
1995-12-07 06   10.4    92.5                  25          
1995-12-07 12   10.4    92.3                  25          
1995-12-07 18   10.3    92.1                  25          
1995-12-08 00   10.1    91.9                  25          
1995-12-08 06    9.9    91.8                  30          
1995-12-08 12    9.6    92.0                  35          
1995-12-08 18    9.4    92.4            1     40          
1995-12-09 00    9.3    93.0            1     40          
1995-12-09 06    9.1    93.8            1     40          
1995-12-09 12    9.1    94.7            1     40          
1995-12-09 18    9.2    95.6            1     40          
1995-12-10 00    9.3    96.3            1     40          
1995-12-10 06    9.3    97.1            1     40          
1995-12-10 12    9.4    98.1            1     40          
1995-12-10 18    9.7    99.2            1     40          
1995-12-11 00   10.0   100.4            1     40          
1995-12-11 06   10.2   102.0                  35          
1995-12-11 12   10.3   103.5                  35          
1995-12-11 18   10.6   104.8                  35          
1995-12-12 00   10.9   105.8                  30          
1995-12-12 06   11.1   106.9                  25          
1995-12-12 12   11.3   108.0                  25          
1995-12-12 18   11.7   108.9                  25          
1995-12-13 00   12.1   109.8                  25          
1995-12-13 06   12.6   110.7                  25          
1995-12-13 12   13.0   111.2                  20          
1995-12-13 18   13.2   111.5                  25          
1995-12-14 00   13.3   111.9                  20          
1995-12-14 06   13.4   112.3                  25          
1995-12-14 12   13.4   112.7                  30          
1995-12-14 18   13.2   113.1                  25          
1995-12-15 00   13.2   113.4                  25          
1995-12-15 06   13.2   113.6                  25          
Winds are 1-min average.

Tropical cyclone tracks developed by Michael Bath using data from the Joint Typhoon Warning Centre Best Tracks and Google Maps.


[Australian Severe Weather index] [Copyright Notice] [Email Contacts] [Search This Site] [Privacy Policy]
Document: tropical_cyclone_emma.htm Updated: 18 September 2016